sensor_id;sensor_type;location;lat;lon;timestamp;pressure;altitude;pressure_sealevel;temperature;humidity
49627;BME280;35527;54.616;39.786;2023-04-30T00:00:21;100239.47;;;2.44;100.00
49627;BME280;35527;54.616;39.786;2023-04-30T00:03:27;100236.06;;;2.42;100.00
49627;BME280;35527;54.616;39.786;2023-04-30T00:06:30;100233.53;;;2.50;100.00
49627;BME280;35527;54.616;39.786;2023-04-30T00:09:35;100247.13;;;2.34;100.00
49627;BME280;35527;54.616;39.786;2023-04-30T00:12:38;100229.22;;;2.12;100.00
49627;BME280;35527;54.616;39.786;2023-04-30T00:15:45;100247.09;;;2.21;100.00
49627;BME280;35527;54.616;39.786;2023-04-30T00:18:47;100234.31;;;2.14;100.00
49627;BME280;35527;54.616;39.786;2023-04-30T00:21:50;100217.28;;;2.05;100.00
49627;BME280;35527;54.616;39.786;2023-04-30T00:24:56;100213.03;;;2.07;100.00
49627;BME280;35527;54.616;39.786;2023-04-30T00:28:00;100226.69;;;2.15;100.00
49627;BME280;35527;54.616;39.786;2023-04-30T00:31:04;100208.75;;;1.97;100.00
49627;BME280;35527;54.616;39.786;2023-04-30T00:34:13;100236.88;;;2.06;100.00
49627;BME280;35527;54.616;39.786;2023-04-30T00:37:20;100229.19;;;2.01;100.00
49627;BME280;35527;54.616;39.786;2023-04-30T00:40:30;100218.09;;;1.84;100.00
49627;BME280;35527;54.616;39.786;2023-04-30T00:43:35;100218.94;;;1.91;100.00
49627;BME280;35527;54.616;39.786;2023-04-30T00:46:40;100235.13;;;1.90;100.00
49627;BME280;35527;54.616;39.786;2023-04-30T00:49:47;100209.66;;;2.22;100.00
49627;BME280;35527;54.616;39.786;2023-04-30T00:52:51;100209.66;;;2.39;100.00
49627;BME280;35527;54.616;39.786;2023-04-30T00:55:54;100208.81;;;2.41;100.00
49627;BME280;35527;54.616;39.786;2023-04-30T00:59:00;100227.53;;;2.22;100.00
49627;BME280;35527;54.616;39.786;2023-04-30T01:02:05;100228.31;;;1.96;100.00
49627;BME280;35527;54.616;39.786;2023-04-30T01:05:08;100229.16;;;1.85;100.00
49627;BME280;35527;54.616;39.786;2023-04-30T01:08:12;100222.34;;;1.85;100.00
49627;BME280;35527;54.616;39.786;2023-04-30T01:18:08;100217.19;;;1.68;100.00
49627;BME280;35527;54.616;39.786;2023-04-30T01:21:17;100223.13;;;1.67;100.00
49627;BME280;35527;54.616;39.786;2023-04-30T01:24:48;100214.63;;;1.68;100.00
49627;BME280;35527;54.616;39.786;2023-04-30T01:31:17;100210.38;;;1.64;100.00
49627;BME280;35527;54.616;39.786;2023-04-30T01:34:21;100182.34;;;1.73;100.00
49627;BME280;35527;54.616;39.786;2023-04-30T01:38:11;100201.09;;;1.91;100.00
49627;BME280;35527;54.616;39.786;2023-04-30T01:41:18;100203.66;;;2.00;100.00
49627;BME280;35527;54.616;39.786;2023-04-30T01:47:38;100173.88;;;1.93;100.00
49627;BME280;35527;54.616;39.786;2023-04-30T01:50:52;100202.81;;;2.04;100.00
49627;BME280;35527;54.616;39.786;2023-04-30T01:57:28;100186.66;;;2.03;100.00
49627;BME280;35527;54.616;39.786;2023-04-30T02:00:33;100179.00;;;1.99;100.00
49627;BME280;35527;54.616;39.786;2023-04-30T02:03:37;100166.19;;;1.85;100.00
49627;BME280;35527;54.616;39.786;2023-04-30T02:06:42;100190.91;;;2.01;100.00
49627;BME280;35527;54.616;39.786;2023-04-30T02:09:44;100176.44;;;2.03;100.00
49627;BME280;35527;54.616;39.786;2023-04-30T02:12:50;100181.53;;;2.17;100.00
49627;BME280;35527;54.616;39.786;2023-04-30T02:15:52;100171.34;;;2.22;100.00
49627;BME280;35527;54.616;39.786;2023-04-30T02:18:56;100169.66;;;2.25;100.00
49627;BME280;35527;54.616;39.786;2023-04-30T02:22:00;100162.84;;;2.24;100.00
49627;BME280;35527;54.616;39.786;2023-04-30T02:25:04;100161.13;;;2.28;100.00
49627;BME280;35527;54.616;39.786;2023-04-30T02:28:08;100139.03;;;2.21;100.00
49627;BME280;35527;54.616;39.786;2023-04-30T02:31:12;100149.22;;;2.33;100.00
49627;BME280;35527;54.616;39.786;2023-04-30T02:34:20;100151.78;;;2.36;100.00
49627;BME280;35527;54.616;39.786;2023-04-30T02:37:23;100121.13;;;2.13;100.00
49627;BME280;35527;54.616;39.786;2023-04-30T02:40:32;100127.09;;;2.28;100.00
49627;BME280;35527;54.616;39.786;2023-04-30T02:43:34;100141.56;;;2.42;100.00
49627;BME280;35527;54.616;39.786;2023-04-30T02:46:38;100130.31;;;3.17;100.00
49627;BME280;35527;54.616;39.786;2023-04-30T02:49:41;100119.16;;;3.38;100.00
49627;BME280;35527;54.616;39.786;2023-04-30T02:52:48;100120.84;;;3.44;100.00
49627;BME280;35527;54.616;39.786;2023-04-30T02:55:51;100127.56;;;3.57;100.00
49627;BME280;35527;54.616;39.786;2023-04-30T02:58:55;100136.09;;;3.64;100.00
49627;BME280;35527;54.616;39.786;2023-04-30T03:01:57;100130.97;;;3.64;100.00
49627;BME280;35527;54.616;39.786;2023-04-30T03:05:05;100120.63;;;3.74;100.00
49627;BME280;35527;54.616;39.786;2023-04-30T03:08:09;100121.69;;;3.41;100.00
49627;BME280;35527;54.616;39.786;2023-04-30T03:11:12;100102.03;;;3.49;100.00
49627;BME280;35527;54.616;39.786;2023-04-30T03:14:16;100089.75;;;3.99;100.00
49627;BME280;35527;54.616;39.786;2023-04-30T03:17:19;100082.75;;;4.21;100.00
49627;BME280;35527;54.616;39.786;2023-04-30T03:20:24;100075.75;;;4.38;100.00
49627;BME280;35527;54.616;39.786;2023-04-30T03:23:27;100083.75;;;4.91;100.00
49627;BME280;35527;54.616;39.786;2023-04-30T03:26:33;100082.13;;;5.50;100.00
49627;BME280;35527;54.616;39.786;2023-04-30T03:29:37;100079.28;;;5.69;100.00
49627;BME280;35527;54.616;39.786;2023-04-30T03:32:41;100052.56;;;5.82;100.00
49627;BME280;35527;54.616;39.786;2023-04-30T03:35:46;100056.69;;;5.91;100.00
49627;BME280;35527;54.616;39.786;2023-04-30T03:38:49;100058.97;;;6.09;99.28
49627;BME280;35527;54.616;39.786;2023-04-30T03:41:53;100042.97;;;6.44;96.85
49627;BME280;35527;54.616;39.786;2023-04-30T03:44:57;100035.19;;;6.91;92.56
49627;BME280;35527;54.616;39.786;2023-04-30T03:47:59;100050.66;;;8.04;89.06
49627;BME280;35527;54.616;39.786;2023-04-30T03:51:02;100038.56;;;9.03;79.21
49627;BME280;35527;54.616;39.786;2023-04-30T03:54:07;100040.75;;;9.73;69.79
49627;BME280;35527;54.616;39.786;2023-04-30T03:57:12;100015.88;;;9.69;65.07
49627;BME280;35527;54.616;39.786;2023-04-30T04:00:18;100033.44;;;9.86;65.11
49627;BME280;35527;54.616;39.786;2023-04-30T04:03:24;100040.44;;;10.09;63.56
49627;BME280;35527;54.616;39.786;2023-04-30T04:06:29;100031.59;;;9.89;63.46
49627;BME280;35527;54.616;39.786;2023-04-30T04:09:33;100020.47;;;9.87;61.83
49627;BME280;35527;54.616;39.786;2023-04-30T04:12:38;100024.44;;;9.71;61.01
49627;BME280;35527;54.616;39.786;2023-04-30T04:15:43;100032.13;;;9.73;63.15
49627;BME280;35527;54.616;39.786;2023-04-30T04:18:47;100021.06;;;10.71;60.76
49627;BME280;35527;54.616;39.786;2023-04-30T04:21:53;100029.63;;;11.42;56.66
49627;BME280;35527;54.616;39.786;2023-04-30T04:24:56;100027.88;;;11.86;55.48
49627;BME280;35527;54.616;39.786;2023-04-30T04:28:02;100027.69;;;12.11;54.70
49627;BME280;35527;54.616;39.786;2023-04-30T04:31:07;100027.88;;;12.07;53.72
49627;BME280;35527;54.616;39.786;2023-04-30T04:34:16;99990.19;;;12.39;52.06
49627;BME280;35527;54.616;39.786;2023-04-30T04:37:21;100020.84;;;12.89;49.80
49627;BME280;35527;54.616;39.786;2023-04-30T04:40:25;100000.97;;;12.30;50.75
49627;BME280;35527;54.616;39.786;2023-04-30T04:43:30;100002.03;;;12.05;51.03
49627;BME280;35527;54.616;39.786;2023-04-30T04:46:34;100020.75;;;12.32;50.43
49627;BME280;35527;54.616;39.786;2023-04-30T04:49:43;99992.09;;;12.54;49.99
49627;BME280;35527;54.616;39.786;2023-04-30T04:52:46;99992.13;;;13.11;48.09
49627;BME280;35527;54.616;39.786;2023-04-30T04:55:53;99990.31;;;13.32;46.31
49627;BME280;35527;54.616;39.786;2023-04-30T04:58:57;99968.53;;;12.78;46.35
49627;BME280;35527;54.616;39.786;2023-04-30T05:02:00;99970.06;;;11.62;48.05
49627;BME280;35527;54.616;39.786;2023-04-30T05:05:03;99997.97;;;10.41;50.40
49627;BME280;35527;54.616;39.786;2023-04-30T05:08:11;99995.84;;;9.49;52.34
49627;BME280;35527;54.616;39.786;2023-04-30T05:11:20;99983.72;;;8.95;54.48
49627;BME280;35527;54.616;39.786;2023-04-30T05:14:27;99984.03;;;8.54;55.19
49627;BME280;35527;54.616;39.786;2023-04-30T05:17:31;100019.66;;;8.42;56.08
49627;BME280;35527;54.616;39.786;2023-04-30T05:20:36;100016.50;;;8.29;57.35
49627;BME280;35527;54.616;39.786;2023-04-30T05:23:39;100023.00;;;8.11;58.08
49627;BME280;35527;54.616;39.786;2023-04-30T05:26:43;99990.31;;;8.11;58.87
49627;BME280;35527;54.616;39.786;2023-04-30T05:29:47;99999.47;;;8.23;57.63
49627;BME280;35527;54.616;39.786;2023-04-30T05:32:53;100012.97;;;8.33;57.62
49627;BME280;35527;54.616;39.786;2023-04-30T05:36:02;100012.34;;;8.23;57.58
49627;BME280;35527;54.616;39.786;2023-04-30T05:39:06;99995.22;;;8.21;57.00
49627;BME280;35527;54.616;39.786;2023-04-30T05:42:09;99983.06;;;8.26;56.19
49627;BME280;35527;54.616;39.786;2023-04-30T05:45:14;99987.28;;;8.30;56.96
49627;BME280;35527;54.616;39.786;2023-04-30T05:48:19;99975.25;;;8.29;57.63
49627;BME280;35527;54.616;39.786;2023-04-30T05:51:22;99948.63;;;8.28;57.26
49627;BME280;35527;54.616;39.786;2023-04-30T05:54:26;99983.78;;;8.31;56.88
49627;BME280;35527;54.616;39.786;2023-04-30T05:57:32;99979.66;;;8.24;56.82
49627;BME280;35527;54.616;39.786;2023-04-30T06:00:36;99997.28;;;8.42;56.60
49627;BME280;35527;54.616;39.786;2023-04-30T06:03:44;99986.19;;;8.37;57.07
49627;BME280;35527;54.616;39.786;2023-04-30T06:06:46;99971.47;;;8.09;56.64
49627;BME280;35527;54.616;39.786;2023-04-30T06:09:52;99968.63;;;7.87;57.64
49627;BME280;35527;54.616;39.786;2023-04-30T06:12:55;99941.81;;;7.60;57.81
49627;BME280;35527;54.616;39.786;2023-04-30T06:16:00;99939.06;;;7.66;58.77
49627;BME280;35527;54.616;39.786;2023-04-30T06:19:03;99957.56;;;7.48;59.66
49627;BME280;35527;54.616;39.786;2023-04-30T06:22:08;99948.44;;;7.35;60.43
49627;BME280;35527;54.616;39.786;2023-04-30T06:25:14;99954.50;;;7.32;61.12
49627;BME280;35527;54.616;39.786;2023-04-30T06:28:19;99955.59;;;7.22;61.74
49627;BME280;35527;54.616;39.786;2023-04-30T06:31:23;99928.41;;;7.46;62.12
49627;BME280;35527;54.616;39.786;2023-04-30T06:34:27;99919.41;;;7.30;61.70
49627;BME280;35527;54.616;39.786;2023-04-30T06:37:31;99924.66;;;7.23;61.22
49627;BME280;35527;54.616;39.786;2023-04-30T06:40:39;99939.94;;;7.31;62.02
49627;BME280;35527;54.616;39.786;2023-04-30T06:43:42;99931.94;;;7.06;63.49
49627;BME280;35527;54.616;39.786;2023-04-30T06:46:45;99924.97;;;7.11;63.28
49627;BME280;35527;54.616;39.786;2023-04-30T06:49:48;99927.28;;;7.22;63.14
49627;BME280;35527;54.616;39.786;2023-04-30T06:52:50;99896.72;;;7.08;63.24
49627;BME280;35527;54.616;39.786;2023-04-30T06:55:53;99922.97;;;7.24;64.03
49627;BME280;35527;54.616;39.786;2023-04-30T06:58:57;99884.13;;;7.32;63.19
49627;BME280;35527;54.616;39.786;2023-04-30T07:02:01;99913.22;;;7.70;62.70
49627;BME280;35527;54.616;39.786;2023-04-30T07:05:05;99878.50;;;7.52;62.29
49627;BME280;35527;54.616;39.786;2023-04-30T07:08:08;99860.22;;;7.27;63.04
49627;BME280;35527;54.616;39.786;2023-04-30T07:11:16;99857.53;;;7.33;64.71
49627;BME280;35527;54.616;39.786;2023-04-30T07:14:19;99842.34;;;7.22;65.53
49627;BME280;35527;54.616;39.786;2023-04-30T07:17:23;99828.53;;;7.59;64.75
49627;BME280;35527;54.616;39.786;2023-04-30T07:20:27;99815.47;;;7.65;64.24
49627;BME280;35527;54.616;39.786;2023-04-30T07:23:31;99815.13;;;8.08;63.02
49627;BME280;35527;54.616;39.786;2023-04-30T07:26:38;99803.66;;;8.48;62.17
49627;BME280;35527;54.616;39.786;2023-04-30T07:29:42;99819.38;;;8.95;60.26
49627;BME280;35527;54.616;39.786;2023-04-30T07:32:47;99814.69;;;9.33;59.24
49627;BME280;35527;54.616;39.786;2023-04-30T07:35:52;99813.75;;;9.09;59.11
49627;BME280;35527;54.616;39.786;2023-04-30T07:38:57;99797.72;;;9.26;59.87
49627;BME280;35527;54.616;39.786;2023-04-30T07:42:00;99802.66;;;9.57;59.95
49627;BME280;35527;54.616;39.786;2023-04-30T07:45:04;99774.94;;;9.62;57.35
49627;BME280;35527;54.616;39.786;2023-04-30T07:48:12;99761.97;;;9.87;56.59
49627;BME280;35527;54.616;39.786;2023-04-30T07:51:16;99746.56;;;9.84;55.45
49627;BME280;35527;54.616;39.786;2023-04-30T07:54:19;99758.28;;;9.46;55.81
49627;BME280;35527;54.616;39.786;2023-04-30T07:57:23;99760.63;;;9.52;56.55
49627;BME280;35527;54.616;39.786;2023-04-30T08:00:33;99752.78;;;9.55;56.87
49627;BME280;35527;54.616;39.786;2023-04-30T08:03:38;99751.38;;;9.46;56.29
49627;BME280;35527;54.616;39.786;2023-04-30T08:06:45;99754.44;;;9.33;56.10
49627;BME280;35527;54.616;39.786;2023-04-30T08:09:51;99705.53;;;9.03;56.52
49627;BME280;35527;54.616;39.786;2023-04-30T08:12:55;99755.13;;;9.13;56.45
49627;BME280;35527;54.616;39.786;2023-04-30T08:16:00;99751.78;;;8.84;55.96
49627;BME280;35527;54.616;39.786;2023-04-30T08:19:05;99758.00;;;8.78;56.37
49627;BME280;35527;54.616;39.786;2023-04-30T08:22:09;99752.88;;;8.50;56.84
49627;BME280;35527;54.616;39.786;2023-04-30T08:25:13;99750.50;;;8.44;57.84
49627;BME280;35527;54.616;39.786;2023-04-30T08:28:19;99752.38;;;8.38;58.72
49627;BME280;35527;54.616;39.786;2023-04-30T08:31:22;99748.06;;;8.38;60.95
49627;BME280;35527;54.616;39.786;2023-04-30T08:34:25;99743.94;;;8.32;61.61
49627;BME280;35527;54.616;39.786;2023-04-30T08:37:29;99761.84;;;8.37;61.92
49627;BME280;35527;54.616;39.786;2023-04-30T08:40:34;99756.81;;;8.32;61.42
49627;BME280;35527;54.616;39.786;2023-04-30T08:43:47;99751.53;;;8.39;62.07
49627;BME280;35527;54.616;39.786;2023-04-30T08:46:56;99757.34;;;8.45;61.67
49627;BME280;35527;54.616;39.786;2023-04-30T08:50:05;99742.06;;;8.38;62.51
49627;BME280;35527;54.616;39.786;2023-04-30T08:53:09;99753.13;;;8.43;63.70
49627;BME280;35527;54.616;39.786;2023-04-30T08:56:14;99753.31;;;8.35;65.12
49627;BME280;35527;54.616;39.786;2023-04-30T08:59:17;99741.13;;;8.12;68.78
49627;BME280;35527;54.616;39.786;2023-04-30T09:02:21;99739.22;;;7.89;70.21
49627;BME280;35527;54.616;39.786;2023-04-30T09:05:25;99733.59;;;7.76;72.90
49627;BME280;35527;54.616;39.786;2023-04-30T09:08:44;99754.34;;;8.01;75.60
49627;BME280;35527;54.616;39.786;2023-04-30T09:11:49;99733.03;;;7.96;78.96
49627;BME280;35527;54.616;39.786;2023-04-30T09:15:02;99733.19;;;8.18;79.04
49627;BME280;35527;54.616;39.786;2023-04-30T09:18:18;99726.06;;;7.98;79.40
49627;BME280;35527;54.616;39.786;2023-04-30T09:21:33;99741.91;;;7.86;79.32
49627;BME280;35527;54.616;39.786;2023-04-30T09:24:46;99746.69;;;7.68;80.15
49627;BME280;35527;54.616;39.786;2023-04-30T09:28:06;99740.91;;;7.60;82.45
49627;BME280;35527;54.616;39.786;2023-04-30T09:31:19;99729.56;;;7.67;83.52
49627;BME280;35527;54.616;39.786;2023-04-30T09:34:33;99721.13;;;7.61;83.18
49627;BME280;35527;54.616;39.786;2023-04-30T09:37:39;99745.84;;;7.68;82.91
49627;BME280;35527;54.616;39.786;2023-04-30T09:40:46;99732.53;;;7.54;85.22
49627;BME280;35527;54.616;39.786;2023-04-30T09:43:48;99707.06;;;7.43;86.11
49627;BME280;35527;54.616;39.786;2023-04-30T09:46:52;99700.69;;;7.56;88.08
49627;BME280;35527;54.616;39.786;2023-04-30T09:49:59;99700.88;;;7.50;88.70
49627;BME280;35527;54.616;39.786;2023-04-30T09:53:07;99707.56;;;7.56;88.83
49627;BME280;35527;54.616;39.786;2023-04-30T09:56:11;99692.56;;;7.70;87.68
49627;BME280;35527;54.616;39.786;2023-04-30T09:59:17;99696.44;;;7.83;86.19
49627;BME280;35527;54.616;39.786;2023-04-30T10:02:25;99671.94;;;7.98;85.10
49627;BME280;35527;54.616;39.786;2023-04-30T10:05:32;99677.53;;;8.12;83.91
49627;BME280;35527;54.616;39.786;2023-04-30T10:08:43;99676.06;;;8.32;81.16
49627;BME280;35527;54.616;39.786;2023-04-30T10:11:50;99672.09;;;8.50;81.50
49627;BME280;35527;54.616;39.786;2023-04-30T10:14:56;99642.13;;;8.46;80.30
49627;BME280;35527;54.616;39.786;2023-04-30T10:18:10;99650.31;;;8.59;80.79
49627;BME280;35527;54.616;39.786;2023-04-30T10:21:19;99641.69;;;8.31;78.80
49627;BME280;35527;54.616;39.786;2023-04-30T10:24:25;99625.09;;;8.40;80.08
49627;BME280;35527;54.616;39.786;2023-04-30T10:27:34;99643.38;;;8.32;80.43
49627;BME280;35527;54.616;39.786;2023-04-30T10:30:40;99632.00;;;8.13;81.52
49627;BME280;35527;54.616;39.786;2023-04-30T10:34:03;99634.66;;;8.10;83.46
49627;BME280;35527;54.616;39.786;2023-04-30T10:37:26;99633.63;;;8.16;84.81
49627;BME280;35527;54.616;39.786;2023-04-30T10:40:36;99627.78;;;8.10;85.07
49627;BME280;35527;54.616;39.786;2023-04-30T10:43:40;99613.97;;;8.11;86.08
49627;BME280;35527;54.616;39.786;2023-04-30T10:46:45;99605.59;;;8.31;86.53
49627;BME280;35527;54.616;39.786;2023-04-30T10:49:49;99582.72;;;8.22;85.95
49627;BME280;35527;54.616;39.786;2023-04-30T10:53:02;99557.34;;;8.10;86.67
49627;BME280;35527;54.616;39.786;2023-04-30T10:56:06;99550.00;;;7.98;85.36
49627;BME280;35527;54.616;39.786;2023-04-30T10:59:10;99527.34;;;7.81;84.62
49627;BME280;35527;54.616;39.786;2023-04-30T11:02:15;99542.25;;;7.98;84.40
49627;BME280;35527;54.616;39.786;2023-04-30T11:05:33;99518.47;;;7.89;86.54
49627;BME280;35527;54.616;39.786;2023-04-30T11:08:43;99475.09;;;7.77;86.79
49627;BME280;35527;54.616;39.786;2023-04-30T11:11:46;99518.31;;;7.96;87.65
49627;BME280;35527;54.616;39.786;2023-04-30T11:15:16;99518.19;;;7.99;86.63
49627;BME280;35527;54.616;39.786;2023-04-30T11:18:26;99519.06;;;7.98;85.36
49627;BME280;35527;54.616;39.786;2023-04-30T11:21:30;99549.16;;;7.97;86.15
49627;BME280;35527;54.616;39.786;2023-04-30T11:25:07;99546.34;;;8.05;85.98
49627;BME280;35527;54.616;39.786;2023-04-30T11:28:25;99553.94;;;8.34;83.90
49627;BME280;35527;54.616;39.786;2023-04-30T11:31:34;99577.09;;;8.61;81.96
49627;BME280;35527;54.616;39.786;2023-04-30T11:34:39;99550.06;;;8.48;80.69
49627;BME280;35527;54.616;39.786;2023-04-30T11:37:44;99542.78;;;8.34;81.77
49627;BME280;35527;54.616;39.786;2023-04-30T11:40:54;99540.44;;;8.53;81.97
49627;BME280;35527;54.616;39.786;2023-04-30T11:43:58;99506.03;;;8.52;82.51
49627;BME280;35527;54.616;39.786;2023-04-30T11:47:01;99491.59;;;8.48;80.98
49627;BME280;35527;54.616;39.786;2023-04-30T11:50:07;99489.84;;;8.24;80.38
49627;BME280;35527;54.616;39.786;2023-04-30T11:53:11;99516.72;;;8.17;82.83
49627;BME280;35527;54.616;39.786;2023-04-30T11:56:17;99528.72;;;8.18;84.56
49627;BME280;35527;54.616;39.786;2023-04-30T11:59:22;99522.72;;;8.17;84.07
49627;BME280;35527;54.616;39.786;2023-04-30T12:02:29;99521.94;;;8.15;82.98
49627;BME280;35527;54.616;39.786;2023-04-30T12:05:32;99500.84;;;8.29;84.16
49627;BME280;35527;54.616;39.786;2023-04-30T12:08:35;99463.31;;;8.20;83.25
49627;BME280;35527;54.616;39.786;2023-04-30T12:11:40;99445.75;;;8.31;83.53
49627;BME280;35527;54.616;39.786;2023-04-30T12:14:46;99412.94;;;8.35;83.72
49627;BME280;35527;54.616;39.786;2023-04-30T12:17:51;99429.34;;;8.57;82.16
49627;BME280;35527;54.616;39.786;2023-04-30T12:20:55;99414.09;;;8.51;81.19
49627;BME280;35527;54.616;39.786;2023-04-30T12:23:58;99405.84;;;8.65;82.28
49627;BME280;35527;54.616;39.786;2023-04-30T12:27:02;99386.84;;;8.68;82.90
49627;BME280;35527;54.616;39.786;2023-04-30T12:30:08;99403.00;;;8.95;82.97
49627;BME280;35527;54.616;39.786;2023-04-30T12:33:11;99401.41;;;9.13;82.30
49627;BME280;35527;54.616;39.786;2023-04-30T12:36:15;99410.66;;;9.18;79.75
49627;BME280;35527;54.616;39.786;2023-04-30T12:39:20;99429.03;;;9.33;79.81
49627;BME280;35527;54.616;39.786;2023-04-30T12:42:23;99375.78;;;9.30;77.12
49627;BME280;35527;54.616;39.786;2023-04-30T12:48:54;99383.59;;;9.69;73.44
49627;BME280;35527;54.616;39.786;2023-04-30T12:52:00;99384.50;;;9.89;70.77
49627;BME280;35527;54.616;39.786;2023-04-30T12:55:22;99363.38;;;9.79;68.87
49627;BME280;35527;54.616;39.786;2023-04-30T12:58:29;99341.13;;;9.96;70.60
49627;BME280;35527;54.616;39.786;2023-04-30T13:01:43;99313.81;;;10.09;67.84
49627;BME280;35527;54.616;39.786;2023-04-30T13:04:48;99280.41;;;10.04;67.21
49627;BME280;35527;54.616;39.786;2023-04-30T13:07:51;99275.13;;;10.07;68.36
49627;BME280;35527;54.616;39.786;2023-04-30T13:10:57;99260.78;;;10.19;67.06
49627;BME280;35527;54.616;39.786;2023-04-30T13:14:01;99318.00;;;9.92;65.53
49627;BME280;35527;54.616;39.786;2023-04-30T13:17:06;99324.53;;;9.81;67.55
49627;BME280;35527;54.616;39.786;2023-04-30T13:20:11;99230.53;;;9.64;69.69
49627;BME280;35527;54.616;39.786;2023-04-30T13:23:14;99271.56;;;9.52;71.93
49627;BME280;35527;54.616;39.786;2023-04-30T13:26:20;99284.50;;;9.31;72.87
49627;BME280;35527;54.616;39.786;2023-04-30T13:29:33;99322.56;;;9.46;74.35
49627;BME280;35527;54.616;39.786;2023-04-30T13:32:38;99317.28;;;9.50;75.05
49627;BME280;35527;54.616;39.786;2023-04-30T13:35:41;99359.25;;;9.55;74.92
49627;BME280;35527;54.616;39.786;2023-04-30T13:38:44;99322.84;;;9.20;75.74
49627;BME280;35527;54.616;39.786;2023-04-30T13:41:48;99353.34;;;9.10;78.68
49627;BME280;35527;54.616;39.786;2023-04-30T13:44:50;99356.91;;;9.08;82.16
49627;BME280;35527;54.616;39.786;2023-04-30T13:47:53;99361.91;;;8.90;82.21
49627;BME280;35527;54.616;39.786;2023-04-30T13:51:00;99352.41;;;8.69;84.40
49627;BME280;35527;54.616;39.786;2023-04-30T13:54:04;99333.69;;;8.42;84.33
49627;BME280;35527;54.616;39.786;2023-04-30T13:57:09;99357.91;;;8.60;86.04
49627;BME280;35527;54.616;39.786;2023-04-30T14:00:17;99371.50;;;8.65;86.44
49627;BME280;35527;54.616;39.786;2023-04-30T14:03:22;99355.94;;;8.66;87.58
49627;BME280;35527;54.616;39.786;2023-04-30T14:06:25;99341.53;;;8.61;88.00
49627;BME280;35527;54.616;39.786;2023-04-30T14:09:29;99316.59;;;8.38;89.14
49627;BME280;35527;54.616;39.786;2023-04-30T14:12:31;99315.16;;;8.30;90.97
49627;BME280;35527;54.616;39.786;2023-04-30T14:15:37;99302.44;;;8.26;91.91
49627;BME280;35527;54.616;39.786;2023-04-30T14:18:43;99297.88;;;8.32;93.11
49627;BME280;35527;54.616;39.786;2023-04-30T14:21:46;99273.59;;;8.16;94.06
49627;BME280;35527;54.616;39.786;2023-04-30T14:24:50;99259.31;;;8.07;94.44
49627;BME280;35527;54.616;39.786;2023-04-30T14:27:56;99283.91;;;8.16;94.20
49627;BME280;35527;54.616;39.786;2023-04-30T14:31:01;99277.19;;;8.12;96.62
49627;BME280;35527;54.616;39.786;2023-04-30T14:34:05;99278.91;;;8.11;97.42
49627;BME280;35527;54.616;39.786;2023-04-30T14:37:08;99275.63;;;8.08;98.95
49627;BME280;35527;54.616;39.786;2023-04-30T14:40:13;99263.56;;;8.08;100.00
49627;BME280;35527;54.616;39.786;2023-04-30T14:43:17;99253.25;;;8.08;100.00
49627;BME280;35527;54.616;39.786;2023-04-30T14:46:20;99200.53;;;7.72;100.00
49627;BME280;35527;54.616;39.786;2023-04-30T14:49:26;99222.25;;;7.88;100.00
49627;BME280;35527;54.616;39.786;2023-04-30T14:52:29;99244.63;;;7.87;100.00
49627;BME280;35527;54.616;39.786;2023-04-30T14:55:34;99237.94;;;7.82;100.00
49627;BME280;35527;54.616;39.786;2023-04-30T14:58:37;99228.38;;;7.62;100.00
49627;BME280;35527;54.616;39.786;2023-04-30T15:01:40;99215.09;;;7.49;100.00
49627;BME280;35527;54.616;39.786;2023-04-30T15:04:48;99219.25;;;7.53;100.00
49627;BME280;35527;54.616;39.786;2023-04-30T15:07:54;99186.31;;;7.38;100.00
49627;BME280;35527;54.616;39.786;2023-04-30T15:10:58;99182.41;;;7.28;100.00
49627;BME280;35527;54.616;39.786;2023-04-30T15:14:02;99191.53;;;7.36;100.00
49627;BME280;35527;54.616;39.786;2023-04-30T15:17:05;99182.75;;;7.65;100.00
49627;BME280;35527;54.616;39.786;2023-04-30T15:20:08;99157.72;;;7.45;100.00
49627;BME280;35527;54.616;39.786;2023-04-30T15:23:11;99158.00;;;7.14;100.00
49627;BME280;35527;54.616;39.786;2023-04-30T15:26:13;99189.13;;;7.32;100.00
49627;BME280;35527;54.616;39.786;2023-04-30T15:29:18;99184.47;;;7.18;100.00
49627;BME280;35527;54.616;39.786;2023-04-30T15:32:22;99171.66;;;7.16;100.00
49627;BME280;35527;54.616;39.786;2023-04-30T15:35:26;99156.69;;;7.03;100.00
49627;BME280;35527;54.616;39.786;2023-04-30T15:38:33;99128.97;;;6.87;100.00
49627;BME280;35527;54.616;39.786;2023-04-30T15:41:36;99149.78;;;7.05;100.00
49627;BME280;35527;54.616;39.786;2023-04-30T15:44:40;99141.72;;;6.90;100.00
49627;BME280;35527;54.616;39.786;2023-04-30T15:47:47;99140.41;;;6.79;100.00
49627;BME280;35527;54.616;39.786;2023-04-30T15:50:54;99133.78;;;6.71;100.00
49627;BME280;35527;54.616;39.786;2023-04-30T15:54:01;99147.44;;;6.73;100.00
49627;BME280;35527;54.616;39.786;2023-04-30T15:57:07;99126.41;;;6.61;100.00
49627;BME280;35527;54.616;39.786;2023-04-30T16:00:11;99154.34;;;6.71;100.00
49627;BME280;35527;54.616;39.786;2023-04-30T16:03:16;99152.78;;;6.67;100.00
49627;BME280;35527;54.616;39.786;2023-04-30T16:06:20;99144.16;;;6.68;100.00
49627;BME280;35527;54.616;39.786;2023-04-30T16:09:23;99139.97;;;6.66;100.00
49627;BME280;35527;54.616;39.786;2023-04-30T16:12:29;99125.88;;;6.52;100.00
49627;BME280;35527;54.616;39.786;2023-04-30T16:15:32;99108.81;;;6.50;100.00
49627;BME280;35527;54.616;39.786;2023-04-30T16:18:34;99131.19;;;6.71;100.00
49627;BME280;35527;54.616;39.786;2023-04-30T16:21:42;99118.81;;;6.58;100.00
49627;BME280;35527;54.616;39.786;2023-04-30T16:24:45;99152.13;;;6.61;100.00
49627;BME280;35527;54.616;39.786;2023-04-30T16:27:50;99127.69;;;6.49;100.00
49627;BME280;35527;54.616;39.786;2023-04-30T16:30:57;99135.16;;;6.57;100.00
49627;BME280;35527;54.616;39.786;2023-04-30T16:34:03;99128.44;;;6.52;100.00